createdAt,value
2017-10-07T00:01:37.388Z,94.27
2017-10-07T00:02:17.859Z,94.74
2017-10-07T00:02:58.369Z,94.84
2017-10-07T00:03:38.827Z,94.84
2017-10-07T00:04:19.282Z,94.56
2017-10-07T00:04:59.767Z,94.17
2017-10-07T00:05:40.284Z,94.65
2017-10-07T00:06:20.714Z,94.84
2017-10-07T00:08:38.499Z,94.36
2017-10-07T00:09:18.944Z,94.17
2017-10-07T00:09:59.396Z,94.03
2017-10-07T00:10:39.844Z,93.36
2017-10-07T00:11:20.297Z,93.22
2017-10-07T00:12:00.761Z,93.36
2017-10-07T00:12:41.249Z,92.69
2017-10-07T00:13:21.746Z,92.69
2017-10-07T00:14:02.221Z,92.69
2017-10-07T00:14:42.686Z,92.79
2017-10-07T00:15:23.169Z,92.88
2017-10-07T00:16:03.642Z,93.17
2017-10-07T00:16:44.131Z,92.5
2017-10-07T00:17:24.591Z,92.97
2017-10-07T00:18:05.075Z,92.88
2017-10-07T00:18:45.566Z,93.17
2017-10-07T00:19:25.993Z,92.88
2017-10-07T00:20:06.445Z,92.6
2017-10-07T00:20:46.878Z,93.17
2017-10-07T00:22:59.600Z,93.31
2017-10-07T00:23:40.054Z,93.12
2017-10-07T00:24:20.521Z,94.07
2017-10-07T00:25:01.006Z,94.36
2017-10-07T00:25:41.488Z,93.88
2017-10-07T00:26:21.993Z,93.98
2017-10-07T00:27:02.464Z,94.17
2017-10-07T00:29:00.135Z,94.46
2017-10-07T00:29:40.596Z,93.88
2017-10-07T00:30:21.036Z,94.56
2017-10-07T00:31:01.478Z,94.27
2017-10-07T00:32:59.243Z,94.17
2017-10-07T00:33:39.669Z,94.36
2017-10-07T00:34:20.107Z,94.74
2017-10-07T00:36:07.668Z,94.36
2017-10-07T00:36:48.139Z,94.36
2017-10-07T00:37:28.584Z,94.65
2017-10-07T00:38:09.031Z,94.74
2017-10-07T00:38:49.484Z,94.65
2017-10-07T00:40:42.045Z,94.74
2017-10-07T00:41:22.512Z,94.65
2017-10-07T00:42:03.033Z,94.84
2017-10-07T00:42:43.504Z,95.03
2017-10-07T00:43:23.945Z,94.74
2017-10-07T00:44:04.410Z,94.65
2017-10-07T00:44:44.851Z,94.56
2017-10-07T00:45:25.286Z,94.56
2017-10-07T00:46:05.787Z,94.84
2017-10-07T00:46:46.176Z,94.74
2017-10-07T00:47:26.658Z,94.56
2017-10-07T00:49:44.528Z,94.65
2017-10-07T00:50:24.952Z,94.65
2017-10-07T00:51:05.397Z,94.56
2017-10-07T00:51:45.824Z,94.65
2017-10-07T00:52:26.280Z,94.27
2017-10-07T00:53:06.700Z,94.27
2017-10-07T00:53:47.146Z,94.65
2017-10-07T00:54:27.629Z,94.27
2017-10-07T00:56:40.333Z,94.84
2017-10-07T00:57:20.859Z,94.27
2017-10-07T00:58:01.215Z,93.98
2017-10-07T00:58:41.689Z,94.07
2017-10-07T01:00:34.241Z,94.56
2017-10-07T01:01:14.673Z,94.56
2017-10-07T01:01:55.086Z,94.74
2017-10-07T01:02:35.560Z,94.36
2017-10-07T01:03:16.016Z,94.84
2017-10-07T01:03:56.446Z,94.56
2017-10-07T01:04:36.920Z,95.03
2017-10-07T01:05:17.351Z,94.65
2017-10-07T01:05:57.807Z,94.93
2017-10-07T01:06:38.255Z,94.65
2017-10-07T01:07:18.724Z,94.27
2017-10-07T01:07:59.160Z,94.46
2017-10-07T01:08:39.596Z,94.27
2017-10-07T01:09:20.072Z,94.07
2017-10-07T01:10:01.100Z,94.17
2017-10-07T01:10:41.516Z,94.65
2017-10-07T01:11:21.997Z,94.84
2017-10-07T01:12:02.459Z,94.17
2017-10-07T01:12:42.915Z,94.84
2017-10-07T01:13:23.358Z,94.74
2017-10-07T01:15:10.862Z,94.36
2017-10-07T01:15:51.266Z,94.46
2017-10-07T01:16:31.753Z,94.46
2017-10-07T01:17:12.224Z,94.56
2017-10-07T01:17:52.723Z,93.88
2017-10-07T01:18:33.231Z,93.79
2017-10-07T01:19:13.617Z,94.07
2017-10-07T01:19:54.102Z,94.36
2017-10-07T01:20:34.584Z,93.79
2017-10-07T01:21:14.978Z,94.17
2017-10-07T01:21:55.433Z,93.79
2017-10-07T01:22:36.600Z,93.6
2017-10-07T01:23:17.037Z,93.79
2017-10-07T01:25:14.806Z,93.98
2017-10-07T01:25:55.124Z,93.98
2017-10-07T01:26:35.642Z,93.79
2017-10-07T01:27:16.078Z,93.51
2017-10-07T01:27:56.553Z,93.31
2017-10-07T01:28:37.031Z,93.41
2017-10-07T01:29:17.499Z,93.79
2017-10-07T01:29:57.980Z,93.6
2017-10-07T01:31:50.537Z,93.65
2017-10-07T01:32:30.955Z,93.12
2017-10-07T01:33:11.403Z,93.7
2017-10-07T01:33:51.823Z,93.26
2017-10-07T01:34:32.266Z,93.46
2017-10-07T01:35:12.735Z,93.36
2017-10-07T01:35:53.241Z,93.65
2017-10-07T01:36:33.713Z,93.22
2017-10-07T01:37:14.145Z,93.51
2017-10-07T01:37:54.607Z,93.6
2017-10-07T01:38:35.107Z,93.6
2017-10-07T01:39:15.522Z,93.41
2017-10-07T01:39:55.969Z,92.65
2017-10-07T01:40:36.404Z,92.97
2017-10-07T01:41:16.857Z,93.22
2017-10-07T01:41:57.318Z,93.79
2017-10-07T01:42:37.777Z,93.79
2017-10-07T01:43:18.231Z,93.41
2017-10-07T01:45:10.763Z,94.07
2017-10-07T01:45:51.298Z,93.7
2017-10-07T01:46:31.716Z,94.56
2017-10-07T01:47:12.182Z,93.88
2017-10-07T01:47:52.679Z,93.79
2017-10-07T01:48:33.155Z,94.46
2017-10-07T01:49:13.629Z,94.65
2017-10-07T01:49:54.091Z,94.65
2017-10-07T01:50:34.565Z,94.56
2017-10-07T01:51:14.994Z,94.56
2017-10-07T01:51:55.484Z,94.93
2017-10-07T01:53:48.027Z,94.84
2017-10-07T01:54:28.478Z,94.46
2017-10-07T01:55:08.964Z,94.74
2017-10-07T01:55:49.413Z,94.74
2017-10-07T01:56:29.873Z,94.46
2017-10-07T01:57:10.338Z,94.46
2017-10-07T01:57:50.769Z,94.84
2017-10-07T01:58:31.232Z,95.03
2017-10-07T01:59:11.686Z,94.56
2017-10-07T01:59:52.124Z,95.03
2017-10-07T02:01:39.597Z,95.03
2017-10-07T02:02:20.078Z,95.03
2017-10-07T02:03:00.555Z,94.93
2017-10-07T02:03:41.048Z,94.74
2017-10-07T02:04:21.522Z,94.84
2017-10-07T02:05:01.982Z,94.74
2017-10-07T02:05:42.436Z,94.56
2017-10-07T02:06:22.854Z,94.07
2017-10-07T02:07:03.330Z,94.56
2017-10-07T02:07:43.757Z,94.17
2017-10-07T02:08:24.184Z,94.27
2017-10-07T02:10:36.887Z,94.27
2017-10-07T02:11:17.345Z,94.27
2017-10-07T02:11:57.807Z,94.36
2017-10-07T02:14:10.493Z,93.79
2017-10-07T02:14:50.931Z,94.07
2017-10-07T02:15:31.408Z,93.6
2017-10-07T02:16:11.869Z,93.51
2017-10-07T02:16:52.300Z,93.88
2017-10-07T02:17:32.741Z,93.98
2017-10-07T02:18:13.194Z,93.79
2017-10-07T02:18:53.653Z,94.27
2017-10-07T02:19:34.116Z,94.17
2017-10-07T02:21:51.905Z,94.36
2017-10-07T02:22:32.387Z,94.07
2017-10-07T02:23:12.867Z,94.27
2017-10-07T02:23:53.354Z,94.17
2017-10-07T02:24:33.796Z,94.84
2017-10-07T02:25:14.263Z,94.84
2017-10-07T02:25:54.726Z,94.27
2017-10-07T02:26:35.179Z,94.65
2017-10-07T02:27:15.618Z,94.84
2017-10-07T02:29:28.319Z,94.7
2017-10-07T02:30:08.839Z,95.08
2017-10-07T02:30:49.279Z,95.94
2017-10-07T02:31:29.750Z,95.75
2017-10-07T02:32:10.271Z,95.46
2017-10-07T02:32:50.728Z,95.17
2017-10-07T02:33:31.201Z,95.17
2017-10-07T02:34:11.690Z,95.37
2017-10-07T02:34:52.105Z,95.17
2017-10-07T02:35:32.538Z,95.7
2017-10-07T02:36:13.002Z,95.37
2017-10-07T02:36:53.499Z,95.03
2017-10-07T02:37:33.940Z,95.03
2017-10-07T02:38:14.424Z,94.98
2017-10-07T02:38:54.892Z,94.84
2017-10-07T02:39:35.322Z,95.46
2017-10-07T02:40:15.757Z,95.79
2017-10-07T02:40:56.214Z,94.93
2017-10-07T02:41:36.656Z,94.79
2017-10-07T02:43:54.422Z,94.84
2017-10-07T02:44:34.908Z,94.74
2017-10-07T02:45:15.361Z,94.27
2017-10-07T02:45:55.866Z,94.36
2017-10-07T02:46:36.313Z,94.46
2017-10-07T02:47:16.765Z,95.12
2017-10-07T02:47:57.220Z,94.84
2017-10-07T02:48:37.630Z,94.65
2017-10-07T02:49:18.080Z,94.36
2017-10-07T02:49:58.519Z,94.56
2017-10-07T02:50:38.968Z,94.46
2017-10-07T02:51:19.398Z,94.46
2017-10-07T02:51:59.833Z,94.36
2017-10-07T02:52:40.319Z,94.46
2017-10-07T02:53:20.780Z,94.36
2017-10-07T02:54:01.198Z,93.79
2017-10-07T02:54:41.665Z,93.79
2017-10-07T02:56:59.471Z,93.88
2017-10-07T02:57:39.965Z,94.17
2017-10-07T02:58:20.426Z,94.07
2017-10-07T02:59:00.890Z,93.7
2017-10-07T02:59:41.361Z,93.7
2017-10-07T03:00:21.869Z,93.7
2017-10-07T03:01:02.337Z,93.79
2017-10-07T03:01:42.799Z,93.79
2017-10-07T03:02:23.256Z,93.88
2017-10-07T03:03:03.717Z,93.79
2017-10-07T03:03:44.151Z,93.79
2017-10-07T03:04:24.636Z,94.03
2017-10-07T03:05:05.093Z,93.88
2017-10-07T03:07:02.668Z,93.79
2017-10-07T03:07:43.095Z,93.98
2017-10-07T03:08:23.565Z,94.07
2017-10-07T03:09:04.677Z,93.88
2017-10-07T03:09:45.151Z,93.98
2017-10-07T03:10:25.632Z,93.79
2017-10-07T03:11:06.131Z,93.79
2017-10-07T03:11:46.584Z,93.98
2017-10-07T03:12:27.039Z,93.88
2017-10-07T03:13:07.451Z,93.79
2017-10-07T03:13:47.898Z,93.88
2017-10-07T03:14:28.383Z,93.88
2017-10-07T03:15:08.864Z,93.98
2017-10-07T03:15:49.326Z,94.65
2017-10-07T03:16:29.788Z,94.27
2017-10-07T03:17:10.250Z,94.27
2017-10-07T03:17:50.709Z,94.36
2017-10-07T03:18:31.153Z,94.27
2017-10-07T03:19:11.591Z,93.98
2017-10-07T03:19:52.047Z,94.27
2017-10-07T03:20:32.489Z,94.27
2017-10-07T03:21:12.956Z,93.79
2017-10-07T03:21:53.398Z,93.79
2017-10-07T03:23:40.880Z,93.79
2017-10-07T03:24:21.327Z,93.98
2017-10-07T03:25:01.800Z,94.27
2017-10-07T03:25:42.273Z,93.6
2017-10-07T03:26:22.737Z,93.6
2017-10-07T03:27:03.207Z,93.79
2017-10-07T03:27:43.627Z,93.79
2017-10-07T03:28:24.104Z,93.51
2017-10-07T03:29:04.568Z,93.98
2017-10-07T03:29:45.046Z,93.98
2017-10-07T03:30:25.466Z,94.36
2017-10-07T03:31:05.916Z,93.7
2017-10-07T03:31:46.379Z,93.88
2017-10-07T03:32:26.793Z,94.17
2017-10-07T03:34:19.408Z,94.27
2017-10-07T03:34:59.812Z,93.98
2017-10-07T03:35:40.291Z,93.98
2017-10-07T03:36:20.780Z,93.98
2017-10-07T03:37:01.252Z,93.98
2017-10-07T03:37:41.730Z,94.07
2017-10-07T03:39:34.307Z,94.17
2017-10-07T03:40:14.753Z,93.88
2017-10-07T03:40:55.237Z,93.98
2017-10-07T03:41:35.730Z,94.36
2017-10-07T03:42:16.202Z,93.98
2017-10-07T03:42:56.669Z,93.98
2017-10-07T03:43:37.110Z,94.46
2017-10-07T03:44:17.553Z,94.27
2017-10-07T03:44:57.977Z,93.79
2017-10-07T03:45:38.418Z,94.17
2017-10-07T03:46:18.858Z,94.46
2017-10-07T03:46:59.314Z,94.56
2017-10-07T03:47:39.735Z,94.36
2017-10-07T03:48:20.173Z,94.17
2017-10-07T03:49:00.616Z,94.17
2017-10-07T03:49:41.059Z,94.46
2017-10-07T03:50:21.498Z,94.36
2017-10-07T03:51:01.939Z,93.79
2017-10-07T03:51:42.409Z,93.6
2017-10-07T03:52:22.838Z,93.51
2017-10-07T03:53:03.300Z,93.7
2017-10-07T03:53:43.804Z,93.88
2017-10-07T03:54:24.228Z,93.79
2017-10-07T03:55:04.669Z,94.17
2017-10-07T03:56:57.272Z,94.56
2017-10-07T03:57:37.682Z,94.36
2017-10-07T03:58:18.153Z,94.07
2017-10-07T03:58:58.571Z,94.17
2017-10-07T03:59:38.999Z,95.12
2017-10-07T04:00:19.458Z,94.56
2017-10-07T04:00:59.926Z,94.74
2017-10-07T04:01:40.390Z,94.17
2017-10-07T04:02:20.862Z,94.93
2017-10-07T04:03:01.300Z,94.74
2017-10-07T04:03:41.737Z,94.84
2017-10-07T04:04:22.179Z,94.56
2017-10-07T04:05:02.611Z,94.79
2017-10-07T04:05:43.072Z,94.98
2017-10-07T04:06:23.504Z,94.98
2017-10-07T04:07:03.935Z,94.79
2017-10-07T04:07:44.362Z,95.27
2017-10-07T04:08:24.850Z,95.75
2017-10-07T04:10:22.490Z,95.08
2017-10-07T04:11:02.954Z,94.89
2017-10-07T04:11:43.416Z,94.98
2017-10-07T04:12:23.853Z,95.37
2017-10-07T04:13:04.279Z,95.56
2017-10-07T04:13:44.732Z,95.56
2017-10-07T04:15:42.352Z,94.98
2017-10-07T04:16:22.785Z,94.98
2017-10-07T04:17:03.258Z,95.65
2017-10-07T04:17:43.732Z,95.17
2017-10-07T04:18:24.200Z,94.98
2017-10-07T04:19:04.681Z,94.98
2017-10-07T04:19:45.138Z,95.27
2017-10-07T04:20:25.570Z,94.79
2017-10-07T04:21:06.019Z,94.6
2017-10-07T04:21:46.483Z,94.98
2017-10-07T04:22:26.938Z,94.79
2017-10-07T04:23:07.368Z,94.79
2017-10-07T04:23:47.927Z,94.6
2017-10-07T04:24:28.376Z,94.79
2017-10-07T04:25:08.800Z,94.7
2017-10-07T04:25:49.239Z,94.79
2017-10-07T04:26:29.686Z,94.74
2017-10-07T04:27:10.132Z,94.7
2017-10-07T04:27:50.579Z,94.79
2017-10-07T04:30:08.376Z,94.41
2017-10-07T04:30:48.830Z,94.79
2017-10-07T04:31:29.332Z,94.51
2017-10-07T04:32:09.805Z,94.7
2017-10-07T04:32:50.278Z,94.22
2017-10-07T04:33:30.778Z,94.07
2017-10-07T04:34:11.278Z,93.84
2017-10-07T04:34:51.765Z,93.93
2017-10-07T04:35:32.191Z,93.98
2017-10-07T04:36:12.682Z,94.6
2017-10-07T04:36:53.208Z,93.88
2017-10-07T04:37:33.653Z,93.98
2017-10-07T04:38:14.090Z,93.93
2017-10-07T04:38:54.535Z,94.22
2017-10-07T04:39:34.987Z,94.03
2017-10-07T04:40:15.457Z,94.12
2017-10-07T04:40:55.932Z,94.51
2017-10-07T04:41:36.371Z,94.32
2017-10-07T04:42:16.821Z,94.32
2017-10-07T04:42:57.303Z,93.93
2017-10-07T04:43:37.752Z,93.84
2017-10-07T04:44:18.222Z,94.03
2017-10-07T04:44:58.675Z,94.32
2017-10-07T04:45:39.119Z,94.6
2017-10-07T04:47:51.807Z,94.6
2017-10-07T04:48:32.311Z,94.89
2017-10-07T04:49:12.769Z,94.79
2017-10-07T04:49:53.246Z,94.7
2017-10-07T04:50:33.730Z,95.17
2017-10-07T04:51:14.220Z,94.79
2017-10-07T04:51:54.658Z,94.98
2017-10-07T04:52:35.109Z,95.56
2017-10-07T04:53:15.565Z,95.65
2017-10-07T04:53:55.999Z,95.65
2017-10-07T04:54:36.464Z,96.03
2017-10-07T04:55:16.957Z,96.03
2017-10-07T04:55:57.415Z,95.94
2017-10-07T04:56:37.829Z,95.56
2017-10-07T04:58:30.369Z,95.75
2017-10-07T04:59:10.807Z,96.03
2017-10-07T04:59:51.266Z,95.37
2017-10-07T05:00:31.747Z,95.56
2017-10-07T05:02:29.359Z,95.75
2017-10-07T05:03:09.838Z,95.65
2017-10-07T05:03:50.314Z,95.65
2017-10-07T05:04:30.765Z,95.65
2017-10-07T05:05:11.204Z,95.65
2017-10-07T05:05:51.640Z,96.03
2017-10-07T05:06:32.095Z,95.56
2017-10-07T05:07:12.555Z,95.75
2017-10-07T05:07:52.987Z,95.84
2017-10-07T05:08:33.438Z,96.22
2017-10-07T05:09:13.888Z,96.03
2017-10-07T05:09:54.370Z,95.84
2017-10-07T05:10:34.797Z,95.94
2017-10-07T05:11:15.244Z,95.75
2017-10-07T05:13:33.029Z,95.75
2017-10-07T05:14:13.422Z,95.84
2017-10-07T05:14:53.891Z,95.65
2017-10-07T05:15:34.398Z,95.94
2017-10-07T05:16:14.790Z,95.94
2017-10-07T05:16:55.223Z,95.94
2017-10-07T05:17:35.688Z,95.94
2017-10-07T05:18:16.108Z,95.75
2017-10-07T05:18:56.548Z,95.7
2017-10-07T05:19:36.989Z,95.84
2017-10-07T05:20:17.504Z,95.56
2017-10-07T05:20:57.960Z,96.22
2017-10-07T05:21:38.398Z,95.75
2017-10-07T05:22:18.836Z,95.61
2017-10-07T05:22:59.269Z,95.46
2017-10-07T05:23:39.735Z,95.56
2017-10-07T05:24:20.186Z,95.61
2017-10-07T05:25:00.651Z,95.89
2017-10-07T05:25:41.080Z,96.27
2017-10-07T05:26:21.534Z,96.65
2017-10-07T05:27:02.012Z,96.08
2017-10-07T05:27:42.482Z,96.36
2017-10-07T05:28:22.936Z,96.46
2017-10-07T05:29:03.377Z,96.46
2017-10-07T05:29:43.877Z,96.27
2017-10-07T05:30:24.336Z,96.27
2017-10-07T05:31:04.784Z,95.51
2017-10-07T05:33:02.409Z,96.56
2017-10-07T05:33:42.868Z,96.65
2017-10-07T05:34:23.362Z,96.75
2017-10-07T05:35:03.864Z,96.27
2017-10-07T05:35:44.343Z,96.27
2017-10-07T05:36:24.859Z,96.46
2017-10-07T05:37:05.406Z,96.36
2017-10-07T05:37:45.885Z,96.56
2017-10-07T05:38:26.369Z,96.46
2017-10-07T05:39:06.849Z,96.65
2017-10-07T05:39:47.268Z,96.46
2017-10-07T05:42:05.091Z,97.32
2017-10-07T05:42:45.575Z,97.13
2017-10-07T05:45:03.363Z,96.27
2017-10-07T05:45:43.843Z,96.75
2017-10-07T05:46:24.321Z,96.65
2017-10-07T05:47:04.801Z,97.32
2017-10-07T05:47:45.327Z,97.32
2017-10-07T05:48:25.774Z,97.32
2017-10-07T05:49:06.252Z,97.32
2017-10-07T05:49:46.732Z,97.03
2017-10-07T05:50:27.215Z,96.94
2017-10-07T05:51:07.707Z,97.03
2017-10-07T05:51:48.138Z,97.41
2017-10-07T05:52:28.587Z,97.41
2017-10-07T05:53:09.011Z,97.61
2017-10-07T05:53:49.442Z,97.03
2017-10-07T05:54:29.859Z,97.32
2017-10-07T05:55:10.289Z,97.13
2017-10-07T05:55:50.754Z,96.65
2017-10-07T05:56:31.234Z,96.65
2017-10-07T05:57:11.707Z,96.84
2017-10-07T05:57:52.154Z,96.65
2017-10-07T05:58:32.604Z,96.56
2017-10-07T05:59:13.029Z,96.75
2017-10-07T05:59:53.582Z,96.56
2017-10-07T06:00:34.023Z,96.84
2017-10-07T06:02:51.899Z,96.75
2017-10-07T06:03:32.378Z,96.75
2017-10-07T06:04:12.773Z,97.13
2017-10-07T06:04:53.205Z,97.22
2017-10-07T06:07:05.949Z,97.41
2017-10-07T06:07:46.396Z,97.03
2017-10-07T06:09:33.846Z,97.13
2017-10-07T06:10:14.318Z,96.75
2017-10-07T06:10:54.817Z,97.22
2017-10-07T06:11:35.266Z,96.75
2017-10-07T06:12:15.709Z,96.56
2017-10-07T06:12:56.155Z,96.46
2017-10-07T06:13:36.615Z,97.32
2017-10-07T06:14:17.081Z,96.65
2017-10-07T06:14:57.584Z,97.22
2017-10-07T06:15:38.023Z,96.36
2017-10-07T06:16:18.488Z,96.65
2017-10-07T06:16:58.948Z,96.84
2017-10-07T06:18:51.473Z,96.51
2017-10-07T06:19:31.919Z,96.51
2017-10-07T06:20:12.409Z,96.03
2017-10-07T06:20:52.870Z,95.84
2017-10-07T06:21:33.359Z,95.75
2017-10-07T06:22:13.850Z,95.65
2017-10-07T06:22:54.319Z,95.65
2017-10-07T06:23:34.782Z,95.75
2017-10-07T06:24:15.244Z,95.84
2017-10-07T06:24:55.676Z,95.94
2017-10-07T06:25:36.132Z,95.56
2017-10-07T06:27:23.622Z,95.17
2017-10-07T06:28:04.080Z,95.65
2017-10-07T06:28:44.563Z,95.65
2017-10-07T06:29:25.026Z,95.37
2017-10-07T06:30:05.477Z,95.37
2017-10-07T06:30:45.949Z,95.27
2017-10-07T06:31:26.436Z,95.65
2017-10-07T06:32:06.967Z,94.98
2017-10-07T06:32:47.412Z,95.08
2017-10-07T06:33:27.877Z,94.89
2017-10-07T06:34:08.322Z,94.98
2017-10-07T06:34:48.775Z,94.79
2017-10-07T06:35:29.199Z,95.17
2017-10-07T06:36:09.670Z,94.6
2017-10-07T06:36:50.110Z,94.6
2017-10-07T06:37:30.575Z,94.89
2017-10-07T06:38:11.070Z,94.89
2017-10-07T06:38:51.529Z,94.32
2017-10-07T06:39:31.981Z,94.36
2017-10-07T06:40:12.418Z,94.41
2017-10-07T06:40:52.861Z,94.12
2017-10-07T06:41:33.279Z,94.32
2017-10-07T06:42:13.722Z,93.93
2017-10-07T06:42:54.152Z,94.51
2017-10-07T06:43:34.581Z,94.51
2017-10-07T06:44:15.031Z,94.22
2017-10-07T06:44:55.501Z,94.79
2017-10-07T06:45:36.004Z,94.89
2017-10-07T06:46:16.431Z,94.89
2017-10-07T06:46:56.889Z,94.79
2017-10-07T06:47:37.342Z,94.79
2017-10-07T06:48:18.480Z,95.17
2017-10-07T06:48:58.921Z,94.89
2017-10-07T06:49:39.352Z,94.41
2017-10-07T06:50:19.815Z,95.17
2017-10-07T06:51:00.289Z,94.98
2017-10-07T06:51:40.751Z,95.37
2017-10-07T06:52:21.262Z,94.98
2017-10-07T06:53:01.736Z,94.79
2017-10-07T06:53:42.213Z,94.41
2017-10-07T06:54:22.647Z,94.7
2017-10-07T06:55:03.087Z,94.7
2017-10-07T06:55:43.542Z,94.79
2017-10-07T06:56:24.018Z,94.6
2017-10-07T06:57:04.550Z,94.89
2017-10-07T06:57:45.010Z,94.65
2017-10-07T06:58:25.443Z,93.98
2017-10-07T06:59:05.892Z,93.41
2017-10-07T06:59:46.369Z,93.79
2017-10-07T07:00:26.837Z,93.55
2017-10-07T07:01:07.323Z,93.31
2017-10-07T07:01:47.805Z,93.12
2017-10-07T07:02:28.305Z,93.41
2017-10-07T07:03:08.737Z,93.12
2017-10-07T07:03:49.166Z,92.74
2017-10-07T07:04:29.642Z,93.12
2017-10-07T07:05:10.057Z,93.22
2017-10-07T07:05:50.516Z,92.36
2017-10-07T07:06:31.037Z,92.07
2017-10-07T07:07:11.450Z,92.65
2017-10-07T07:07:51.928Z,92.74
2017-10-07T07:08:32.373Z,92.74
2017-10-07T07:09:12.815Z,91.88
2017-10-07T07:09:53.252Z,92.26
2017-10-07T07:10:33.714Z,91.88
2017-10-07T07:11:14.159Z,91.74
2017-10-07T07:11:54.630Z,91.69
2017-10-07T07:12:35.079Z,91.78
2017-10-07T07:13:15.501Z,91.31
2017-10-07T07:13:55.960Z,91.98
2017-10-07T07:14:36.374Z,91.07
2017-10-07T07:15:16.848Z,91.74
2017-10-07T07:17:34.664Z,91.07
2017-10-07T07:18:15.133Z,90.97
2017-10-07T07:18:55.615Z,90.88
2017-10-07T07:19:36.156Z,90.88
2017-10-07T07:20:16.646Z,91.45
2017-10-07T07:20:57.103Z,91.07
2017-10-07T07:21:37.589Z,91.07
2017-10-07T07:22:18.062Z,90.4
2017-10-07T07:22:58.530Z,90.59
2017-10-07T07:23:39.016Z,90.59
2017-10-07T07:24:19.505Z,90.59
2017-10-07T07:24:59.972Z,90.69
2017-10-07T07:25:40.473Z,90.4
2017-10-07T07:26:20.913Z,90.54
2017-10-07T07:27:01.368Z,90.06
2017-10-07T07:27:41.835Z,90.06
2017-10-07T07:28:22.319Z,89.87
2017-10-07T07:29:02.785Z,89.87
2017-10-07T07:29:43.219Z,89.78
2017-10-07T07:30:23.678Z,89.59
2017-10-07T07:32:41.437Z,88.2
2017-10-07T07:33:21.902Z,88.48
2017-10-07T07:34:02.379Z,87.82
2017-10-07T07:34:42.856Z,87.34
2017-10-07T07:35:23.349Z,87.05
2017-10-07T07:36:03.789Z,87.15
2017-10-07T07:36:44.218Z,86.57
2017-10-07T07:37:24.675Z,86.67
2017-10-07T07:38:05.138Z,86.57
2017-10-07T07:38:45.604Z,86.52
2017-10-07T07:39:26.044Z,86.29
2017-10-07T07:40:06.496Z,86.86
2017-10-07T07:40:47.669Z,87.09
2017-10-07T07:41:28.083Z,86.61
2017-10-07T07:42:08.547Z,86.23
2017-10-07T07:42:48.965Z,86.04
2017-10-07T07:43:29.407Z,84.99
2017-10-07T07:44:09.874Z,86.04
2017-10-07T07:44:50.315Z,85.75
2017-10-07T07:45:30.747Z,85.81
2017-10-07T07:46:11.155Z,86
2017-10-07T07:48:23.813Z,86.91
2017-10-07T07:49:04.282Z,87.24
2017-10-07T07:49:44.740Z,87.34
2017-10-07T07:50:25.201Z,86.67
2017-10-07T07:51:05.636Z,87.43
2017-10-07T07:52:58.193Z,86.76
2017-10-07T07:53:38.649Z,86
2017-10-07T07:54:19.117Z,86.71
2017-10-07T07:54:59.589Z,85.75
2017-10-07T07:55:40.064Z,86.23
2017-10-07T07:56:20.519Z,85.57
2017-10-07T07:57:00.958Z,85.38
2017-10-07T07:57:41.389Z,85.38
2017-10-07T07:58:21.855Z,85.57
2017-10-07T07:59:02.290Z,85.66
2017-10-07T08:00:49.757Z,85.38
2017-10-07T08:01:30.209Z,84.99
2017-10-07T08:02:10.664Z,85.18
2017-10-07T08:02:51.113Z,84.89
2017-10-07T08:04:43.645Z,84.89
2017-10-07T08:05:24.092Z,84.8
2017-10-07T08:06:04.593Z,84.7
2017-10-07T08:06:45.062Z,84.66
2017-10-07T08:07:25.486Z,84.7
2017-10-07T08:08:05.955Z,85.09
2017-10-07T08:08:46.387Z,83.54
2017-10-07T08:09:26.821Z,81.92
2017-10-07T08:10:07.285Z,80.9
2017-10-07T08:10:48.539Z,78.64
2017-10-07T08:11:29.002Z,76.9
2017-10-07T08:12:09.455Z,75.52
2017-10-07T08:12:49.932Z,74.89
2017-10-07T08:13:30.367Z,74.6
2017-10-07T08:14:10.821Z,73.3
2017-10-07T08:14:51.293Z,73.3
2017-10-07T08:15:31.729Z,73.2
2017-10-07T08:16:12.190Z,72.91
2017-10-07T08:16:52.624Z,72.53
2017-10-07T08:17:33.033Z,71.98
2017-10-07T08:18:13.492Z,72.91
2017-10-07T08:18:53.999Z,71.66
2017-10-07T08:19:34.441Z,72.33
2017-10-07T08:20:14.915Z,72.63
2017-10-07T08:20:55.362Z,72.53
2017-10-07T08:21:35.810Z,71.95
2017-10-07T08:22:16.282Z,72.2
2017-10-07T08:22:56.795Z,73.16
2017-10-07T08:23:37.209Z,73.45
2017-10-07T08:24:17.700Z,72.78
2017-10-07T08:24:58.152Z,73.55
2017-10-07T08:25:38.619Z,73.7
2017-10-07T08:26:19.067Z,74.18
2017-10-07T08:26:59.549Z,74.37
2017-10-07T08:29:17.391Z,74.02
2017-10-07T08:29:57.865Z,74.18
2017-10-07T08:30:38.329Z,74.12
2017-10-07T08:31:18.751Z,73.58
2017-10-07T08:31:59.188Z,72.91
2017-10-07T08:32:39.655Z,72.43
2017-10-07T08:33:20.112Z,71.22
2017-10-07T08:34:00.569Z,71.19
2017-10-07T08:34:41.046Z,71.95
2017-10-07T08:35:21.498Z,71.92
2017-10-07T08:36:01.992Z,72.68
2017-10-07T08:36:42.459Z,72.59
2017-10-07T08:37:22.912Z,72.49
2017-10-07T08:38:03.373Z,72.55
2017-10-07T08:38:43.832Z,72.55
2017-10-07T08:39:24.277Z,73.22
2017-10-07T08:41:16.823Z,73.45
2017-10-07T08:41:57.278Z,73.26
2017-10-07T08:42:37.737Z,72.68
2017-10-07T08:43:18.245Z,72.3
2017-10-07T08:43:58.744Z,71.15
2017-10-07T08:44:39.217Z,71.03
2017-10-07T08:45:19.694Z,69.68
2017-10-07T08:46:00.165Z,69.4
2017-10-07T08:46:40.632Z,68.91
2017-10-07T08:47:21.129Z,67.45
2017-10-07T08:48:01.624Z,66.68
2017-10-07T08:48:42.089Z,66.93
2017-10-07T08:49:22.555Z,66.55
2017-10-07T08:50:03.048Z,67.03
2017-10-07T08:50:43.510Z,67.67
2017-10-07T08:51:23.949Z,67.67
2017-10-07T08:52:04.448Z,67.57
2017-10-07T08:52:44.897Z,67.29
2017-10-07T08:53:25.399Z,67.67
2017-10-07T08:54:05.911Z,68.34
2017-10-07T08:54:46.396Z,68.34
2017-10-07T08:55:26.883Z,68.21
2017-10-07T08:56:07.333Z,68.98
2017-10-07T08:58:25.154Z,68.88
2017-10-07T08:59:05.624Z,69.17
2017-10-07T08:59:46.113Z,69.56
2017-10-07T09:00:26.578Z,70.19
2017-10-07T09:01:07.035Z,70.48
2017-10-07T09:01:47.535Z,71.25
2017-10-07T09:02:27.981Z,70.54
2017-10-07T09:04:25.589Z,71.69
2017-10-07T09:05:06.081Z,72.36
2017-10-07T09:05:46.519Z,72.23
2017-10-07T09:07:39.084Z,72.52
2017-10-07T09:08:19.559Z,72.07
2017-10-07T09:09:00.043Z,72.99
2017-10-07T09:09:40.512Z,72.42
2017-10-07T09:11:38.164Z,73.47
2017-10-07T09:12:18.618Z,73.09
2017-10-07T09:12:59.078Z,72.94
2017-10-07T09:13:39.551Z,72.39
2017-10-07T09:14:20.070Z,71.34
2017-10-07T09:15:00.547Z,71.15
2017-10-07T09:15:41.064Z,71.72
2017-10-07T09:16:21.544Z,70.64
2017-10-07T09:17:02.001Z,70.96
2017-10-07T09:17:42.468Z,70.03
2017-10-07T09:18:22.974Z,69.74
2017-10-07T09:19:03.432Z,69.26
2017-10-07T09:19:43.879Z,69.49
2017-10-07T09:20:24.363Z,68.73
2017-10-07T09:21:04.807Z,68.69
2017-10-07T09:21:45.285Z,68.59
2017-10-07T09:22:25.756Z,69.36
2017-10-07T09:24:18.304Z,69.26
2017-10-07T09:24:58.809Z,69.23
2017-10-07T09:25:39.246Z,68.95
2017-10-07T09:26:19.734Z,69.23
2017-10-07T09:27:00.202Z,69.46
2017-10-07T09:27:40.699Z,68.69
2017-10-07T09:28:21.178Z,67.99
2017-10-07T09:29:01.672Z,68.12
2017-10-07T09:29:42.182Z,68.79
2017-10-07T09:31:40.104Z,67.83
2017-10-07T09:32:20.631Z,67.54
2017-10-07T09:33:01.072Z,67.89
2017-10-07T09:33:41.553Z,68.02
2017-10-07T09:34:21.999Z,68.21
2017-10-07T09:35:02.449Z,67.79
2017-10-07T09:35:42.887Z,69.07
2017-10-07T09:36:23.383Z,67.85
2017-10-07T09:38:21.003Z,70.5
2017-10-07T09:39:01.487Z,69.77
2017-10-07T09:39:41.991Z,71.4
2017-10-07T09:40:22.466Z,70.54
2017-10-07T09:42:14.990Z,69.87
2017-10-07T09:42:55.464Z,69.77
2017-10-07T09:43:35.940Z,69.23
2017-10-07T09:44:16.397Z,69.71
2017-10-07T09:44:56.865Z,69.23
2017-10-07T09:47:14.663Z,69.17
2017-10-07T09:47:55.850Z,68.98
2017-10-07T09:48:36.336Z,68.46
2017-10-07T09:49:16.835Z,69.2
2017-10-07T09:49:57.322Z,68.34
2017-10-07T09:50:37.797Z,67.09
2017-10-07T09:51:18.267Z,67.19
2017-10-07T09:51:58.753Z,66.93
2017-10-07T09:52:39.204Z,65.49
2017-10-07T09:53:19.628Z,65.94
2017-10-07T09:54:00.074Z,65.94
2017-10-07T09:54:40.525Z,65.65
2017-10-07T09:55:20.978Z,66.68
2017-10-07T09:56:01.454Z,66.33
2017-10-07T09:56:41.892Z,66.93
2017-10-07T09:57:22.355Z,64.95
2017-10-07T09:58:02.804Z,64.66
2017-10-07T09:58:43.253Z,65.05
2017-10-07T09:59:23.682Z,64.85
2017-10-07T10:00:04.136Z,65.2
2017-10-07T10:00:44.579Z,65.75
2017-10-07T10:01:25.843Z,66.58
2017-10-07T10:02:06.333Z,66.39
2017-10-07T10:02:46.822Z,66.93